createdAt,value
2019-05-10T00:00:39.340Z,10.01
2019-05-10T00:03:27.112Z,9.76
2019-05-10T00:06:15.120Z,9.60
2019-05-10T00:08:47.214Z,9.59
2019-05-10T00:11:40.377Z,9.56
2019-05-10T00:14:34.022Z,9.58
2019-05-10T00:17:23.977Z,9.59
2019-05-10T00:19:54.531Z,9.61
2019-05-10T00:22:28.513Z,9.64
2019-05-10T00:25:04.839Z,9.71
2019-05-10T00:27:31.345Z,9.70
2019-05-10T00:30:01.730Z,9.65
2019-05-10T00:32:32.374Z,9.67
2019-05-10T00:35:03.223Z,9.65
2019-05-10T00:37:33.508Z,9.53
2019-05-10T00:40:05.225Z,9.54
2019-05-10T00:42:36.091Z,9.41
2019-05-10T00:45:10.200Z,9.37
2019-05-10T00:47:40.628Z,9.34
2019-05-10T00:50:11.306Z,9.37
2019-05-10T00:52:41.757Z,9.32
2019-05-10T00:55:18.943Z,9.36
2019-05-10T00:57:45.127Z,9.52
2019-05-10T01:03:02.367Z,9.47
2019-05-10T01:05:32.922Z,9.43
2019-05-10T01:08:03.424Z,9.43
2019-05-10T01:10:33.843Z,9.42
2019-05-10T01:13:04.303Z,9.43
2019-05-10T01:15:34.806Z,9.38
2019-05-10T01:18:05.242Z,9.38
2019-05-10T01:20:35.582Z,9.42
2019-05-10T01:23:06.102Z,9.49
2019-05-10T01:25:36.477Z,9.40
2019-05-10T01:28:07.092Z,9.34
2019-05-10T01:30:37.850Z,9.34
2019-05-10T01:33:08.473Z,9.33
2019-05-10T01:35:42.333Z,9.32
2019-05-10T01:38:12.745Z,9.37
2019-05-10T01:40:49.473Z,9.41
2019-05-10T01:43:22.088Z,9.40
2019-05-10T01:45:52.746Z,9.38
2019-05-10T01:48:23.447Z,9.36
2019-05-10T01:50:54.309Z,9.34
2019-05-10T01:53:27.498Z,9.36
2019-05-10T01:55:57.944Z,9.28
2019-05-10T01:58:29.067Z,9.27
2019-05-10T02:00:59.392Z,9.24
2019-05-10T02:03:30.368Z,9.21
2019-05-10T02:06:01.034Z,9.16
2019-05-10T02:08:33.953Z,9.13
2019-05-10T02:11:04.825Z,9.17
2019-05-10T02:13:35.970Z,9.20
2019-05-10T02:16:06.423Z,9.24
2019-05-10T02:18:36.809Z,9.36
2019-05-10T02:21:07.386Z,9.33
2019-05-10T02:23:38.072Z,9.29
2019-05-10T02:26:10.085Z,9.36
2019-05-10T02:28:40.693Z,9.25
2019-05-10T02:31:11.538Z,9.12
2019-05-10T02:33:42.166Z,9.01
2019-05-10T02:36:12.895Z,8.95
2019-05-10T02:38:43.271Z,8.99
2019-05-10T02:41:13.766Z,8.96
2019-05-10T02:43:44.401Z,8.96
2019-05-10T02:46:14.859Z,8.97
2019-05-10T02:48:45.676Z,8.96
2019-05-10T02:51:16.125Z,9.03
2019-05-10T02:53:46.747Z,9.03
2019-05-10T02:56:30.402Z,8.98
2019-05-10T02:58:53.654Z,8.99
2019-05-10T03:02:46.947Z,9.07
2019-05-10T03:05:17.593Z,8.95
2019-05-10T03:07:50.885Z,8.80
2019-05-10T03:10:21.326Z,8.78
2019-05-10T03:12:56.228Z,8.72
2019-05-10T03:15:33.472Z,8.63
2019-05-10T03:18:05.608Z,8.56
2019-05-10T03:20:39.484Z,8.55
2019-05-10T03:23:11.475Z,8.52
2019-05-10T03:25:41.932Z,8.50
2019-05-10T03:28:12.712Z,8.49
2019-05-10T03:30:43.118Z,8.48
2019-05-10T03:33:14.234Z,8.59
2019-05-10T03:35:44.637Z,8.56
2019-05-10T03:38:15.356Z,8.58
2019-05-10T03:40:46.182Z,8.57
2019-05-10T03:43:19.230Z,8.57
2019-05-10T03:45:49.775Z,8.66
2019-05-10T03:48:22.912Z,8.71
2019-05-10T03:50:53.305Z,8.76
2019-05-10T03:53:24.032Z,8.79
2019-05-10T03:55:54.953Z,8.90
2019-05-10T03:58:28.282Z,8.89
2019-05-10T04:01:01.353Z,8.92
2019-05-10T04:03:33.872Z,8.97
2019-05-10T04:06:04.726Z,8.99
2019-05-10T04:08:38.624Z,9.00
2019-05-10T04:11:09.332Z,9.01
2019-05-10T04:13:39.761Z,9.09
2019-05-10T04:16:10.357Z,9.09
2019-05-10T04:18:43.924Z,9.17
2019-05-10T04:21:14.868Z,9.11
2019-05-10T04:23:45.511Z,9.14
2019-05-10T04:26:16.006Z,9.09
2019-05-10T04:28:46.441Z,9.10
2019-05-10T04:31:17.043Z,9.04
2019-05-10T04:33:47.702Z,9.07
2019-05-10T04:36:18.478Z,9.11
2019-05-10T04:38:49.115Z,9.17
2019-05-10T04:41:19.681Z,9.23
2019-05-10T04:43:50.156Z,9.46
2019-05-10T04:46:20.705Z,9.41
2019-05-10T04:48:51.057Z,9.45
2019-05-10T04:51:21.836Z,9.39
2019-05-10T04:53:52.416Z,9.45
2019-05-10T04:56:23.073Z,9.54
2019-05-10T04:58:53.584Z,9.49
2019-05-10T05:02:46.194Z,9.51
2019-05-10T05:05:16.748Z,9.76
2019-05-10T05:07:47.348Z,10.09
2019-05-10T05:10:17.925Z,10.21
2019-05-10T05:12:48.173Z,10.53
2019-05-10T05:15:22.065Z,10.39
2019-05-10T05:17:52.355Z,10.42
2019-05-10T05:20:22.832Z,10.80
2019-05-10T05:23:02.717Z,10.49
2019-05-10T05:25:41.905Z,10.40
2019-05-10T05:28:12.462Z,10.75
2019-05-10T05:30:46.973Z,11.71
2019-05-10T05:33:17.549Z,12.16
2019-05-10T05:35:51.840Z,12.86
2019-05-10T05:38:22.925Z,12.92
2019-05-10T05:40:53.690Z,13.42
2019-05-10T05:43:24.842Z,13.71
2019-05-10T05:45:58.297Z,13.88
2019-05-10T05:48:40.017Z,13.96
2019-05-10T05:51:05.902Z,14.20
2019-05-10T05:53:45.446Z,13.16
2019-05-10T05:56:16.599Z,13.50
2019-05-10T05:58:55.422Z,13.15
2019-05-10T06:01:29.598Z,13.75
2019-05-10T06:04:10.664Z,13.98
2019-05-10T06:06:44.046Z,14.47
2019-05-10T06:09:14.462Z,14.49
2019-05-10T06:11:50.763Z,14.27
2019-05-10T06:14:23.390Z,14.07
2019-05-10T06:16:57.965Z,14.26
2019-05-10T06:19:31.396Z,14.13
2019-05-10T06:22:04.510Z,14.11
2019-05-10T06:24:37.440Z,14.71
2019-05-10T06:27:08.380Z,14.46
2019-05-10T06:29:47.547Z,14.03
2019-05-10T06:32:23.785Z,14.23
2019-05-10T06:34:54.486Z,13.91
2019-05-10T06:37:25.507Z,14.05
2019-05-10T06:39:56.523Z,14.40
2019-05-10T06:42:28.836Z,14.21
2019-05-10T06:45:05.055Z,14.46
2019-05-10T06:47:41.908Z,14.56
2019-05-10T06:50:10.264Z,15.05
2019-05-10T06:52:44.743Z,14.27
2019-05-10T06:55:19.115Z,14.04
2019-05-10T06:58:01.031Z,14.31
2019-05-10T07:02:51.058Z,14.24
2019-05-10T07:05:22.940Z,14.17
2019-05-10T07:07:59.353Z,14.14
2019-05-10T07:10:33.666Z,14.35
2019-05-10T07:13:03.710Z,15.13
2019-05-10T07:15:35.795Z,14.00
2019-05-10T07:18:07.001Z,13.98
2019-05-10T07:20:37.881Z,13.80
2019-05-10T07:23:08.390Z,13.70
2019-05-10T07:25:46.663Z,13.77
2019-05-10T07:28:17.725Z,13.75
2019-05-10T07:30:48.835Z,14.16
2019-05-10T07:33:19.441Z,14.31
2019-05-10T07:35:52.426Z,14.19
2019-05-10T07:38:30.701Z,13.75
2019-05-10T07:40:57.172Z,13.75
2019-05-10T07:43:29.073Z,13.91
2019-05-10T07:46:06.177Z,14.52
2019-05-10T07:48:34.577Z,14.28
2019-05-10T07:51:04.937Z,14.32
2019-05-10T07:53:35.439Z,14.38
2019-05-10T07:56:08.068Z,14.11
2019-05-10T07:58:45.694Z,13.78
2019-05-10T08:01:30.328Z,13.89
2019-05-10T08:03:52.465Z,14.25
2019-05-10T08:06:23.158Z,14.69
2019-05-10T08:09:06.397Z,15.59
2019-05-10T08:11:41.499Z,15.89
2019-05-10T08:14:12.006Z,15.82
2019-05-10T08:16:44.222Z,15.20
2019-05-10T08:19:15.055Z,15.30
2019-05-10T08:21:48.783Z,16.06
2019-05-10T08:24:18.648Z,16.23
2019-05-10T08:26:49.364Z,15.55
2019-05-10T08:29:19.894Z,15.16
2019-05-10T08:31:56.028Z,14.94
2019-05-10T08:34:28.955Z,14.31
2019-05-10T08:37:02.566Z,15.46
2019-05-10T08:39:45.107Z,16.10
2019-05-10T08:42:30.487Z,16.21
2019-05-10T08:44:43.734Z,16.62
2019-05-10T08:47:22.218Z,16.52
2019-05-10T08:50:07.926Z,17.09
2019-05-10T08:52:27.279Z,16.72
2019-05-10T08:54:58.195Z,16.95
2019-05-10T09:02:45.056Z,17.21
2019-05-10T09:05:15.583Z,16.14
2019-05-10T09:07:46.879Z,15.25
2019-05-10T09:10:17.633Z,15.36
2019-05-10T09:12:53.750Z,15.32
2019-05-10T09:15:22.334Z,15.59
2019-05-10T09:17:53.292Z,15.94
2019-05-10T09:20:26.528Z,16.53
2019-05-10T09:22:58.854Z,17.12
2019-05-10T09:25:33.791Z,17.25
2019-05-10T09:28:14.643Z,17.24
2019-05-10T09:30:52.434Z,17.60
2019-05-10T09:33:13.427Z,17.97
2019-05-10T09:35:46.909Z,17.61
2019-05-10T09:38:14.418Z,17.17
2019-05-10T09:40:51.565Z,16.78
2019-05-10T09:43:17.200Z,16.76
2019-05-10T09:45:52.870Z,16.61
2019-05-10T09:48:23.328Z,16.63
2019-05-10T09:50:56.279Z,16.85
2019-05-10T09:53:30.116Z,17.39
2019-05-10T09:56:03.224Z,17.69
2019-05-10T09:58:33.549Z,18.29
2019-05-10T10:01:14.743Z,17.84
2019-05-10T10:03:43.301Z,17.80
2019-05-10T10:06:11.317Z,17.02
2019-05-10T10:08:43.383Z,17.14
2019-05-10T10:11:18.132Z,17.26
2019-05-10T10:13:59.277Z,17.17
2019-05-10T10:16:25.115Z,16.52
2019-05-10T10:18:56.053Z,16.07
2019-05-10T10:21:34.806Z,16.38
2019-05-10T10:24:00.433Z,16.31
2019-05-10T10:26:31.363Z,16.24
2019-05-10T10:29:01.856Z,16.07
2019-05-10T10:31:48.471Z,16.05
2019-05-10T10:34:07.766Z,15.83
2019-05-10T10:36:40.102Z,15.74
2019-05-10T10:39:10.607Z,15.49
2019-05-10T10:41:41.171Z,15.68
2019-05-10T10:44:11.700Z,15.94
2019-05-10T10:46:43.496Z,15.94
2019-05-10T10:49:14.685Z,16.42
2019-05-10T10:51:47.793Z,16.38
2019-05-10T10:54:22.542Z,16.72
2019-05-10T10:57:01.282Z,16.75
2019-05-10T11:02:46.888Z,16.56
2019-05-10T11:05:18.663Z,17.06
2019-05-10T11:07:51.230Z,17.66
2019-05-10T11:10:31.256Z,17.58
2019-05-10T11:13:10.850Z,16.98
2019-05-10T11:15:36.590Z,17.26
2019-05-10T11:18:10.267Z,17.62
2019-05-10T11:20:42.063Z,16.89
2019-05-10T11:23:16.180Z,16.99
2019-05-10T11:25:54.681Z,17.23
2019-05-10T11:28:17.832Z,16.84
2019-05-10T11:30:55.192Z,17.07
2019-05-10T11:33:30.047Z,18.22
2019-05-10T11:36:04.083Z,17.73
2019-05-10T11:38:32.046Z,18.20
2019-05-10T11:41:06.989Z,18.30
2019-05-10T11:43:35.645Z,17.13
2019-05-10T11:46:06.080Z,17.51
2019-05-10T11:48:37.775Z,17.06
2019-05-10T11:51:12.367Z,17.54
2019-05-10T11:53:41.679Z,17.27
2019-05-10T11:56:13.989Z,17.15
2019-05-10T11:58:50.443Z,16.99
2019-05-10T12:01:22.549Z,16.88
2019-05-10T12:03:53.474Z,16.35
2019-05-10T12:06:23.958Z,16.16
2019-05-10T12:09:04.680Z,15.57
2019-05-10T12:11:43.809Z,14.72
2019-05-10T12:14:30.482Z,15.09
2019-05-10T12:17:06.308Z,15.33
2019-05-10T12:19:44.562Z,15.22
2019-05-10T12:22:07.846Z,15.37
2019-05-10T12:24:52.138Z,15.90
2019-05-10T12:27:21.908Z,16.76
2019-05-10T12:29:46.496Z,17.40
2019-05-10T12:32:21.179Z,18.65
2019-05-10T12:34:56.326Z,18.27
2019-05-10T12:37:27.027Z,17.72
2019-05-10T12:40:06.234Z,17.45
2019-05-10T12:42:31.904Z,17.24
2019-05-10T12:45:04.408Z,16.76
2019-05-10T12:47:41.418Z,16.21
2019-05-10T12:50:17.833Z,16.05
2019-05-10T12:52:50.601Z,16.25
2019-05-10T12:55:20.715Z,15.64
2019-05-10T12:57:51.615Z,15.89
2019-05-10T13:02:51.438Z,16.59
2019-05-10T13:05:17.064Z,16.72
2019-05-10T13:07:47.566Z,16.53
2019-05-10T13:10:18.143Z,16.42
2019-05-10T13:12:48.564Z,16.46
2019-05-10T13:15:24.705Z,16.49
2019-05-10T13:17:53.107Z,16.61
2019-05-10T13:20:23.943Z,16.20
2019-05-10T13:23:09.946Z,15.99
2019-05-10T13:25:41.948Z,15.97
2019-05-10T13:28:13.042Z,15.44
2019-05-10T13:30:43.792Z,15.32
2019-05-10T13:33:28.004Z,15.17
2019-05-10T13:35:50.754Z,14.69
2019-05-10T13:38:18.916Z,14.62
2019-05-10T13:40:49.508Z,14.43
2019-05-10T13:43:26.619Z,14.41
2019-05-10T13:45:55.561Z,14.15
2019-05-10T13:48:26.870Z,13.92
2019-05-10T13:50:57.388Z,13.64
2019-05-10T13:53:27.810Z,13.51
2019-05-10T13:55:58.387Z,13.89
2019-05-10T13:58:31.948Z,13.91
2019-05-10T14:01:06.565Z,14.13
2019-05-10T14:03:45.236Z,13.80
2019-05-10T14:06:13.015Z,14.13
2019-05-10T14:08:48.484Z,14.59
2019-05-10T14:11:18.291Z,15.36
2019-05-10T14:13:52.033Z,16.19
2019-05-10T14:16:22.795Z,16.76
2019-05-10T14:18:55.986Z,16.12
2019-05-10T14:21:26.525Z,15.27
2019-05-10T14:23:57.176Z,15.04
2019-05-10T14:26:27.837Z,15.10
2019-05-10T14:28:58.398Z,15.27
2019-05-10T14:31:28.789Z,15.75
2019-05-10T14:34:14.815Z,16.27
2019-05-10T14:36:41.009Z,15.85
2019-05-10T14:39:22.153Z,15.77
2019-05-10T14:41:52.813Z,15.41
2019-05-10T14:44:23.600Z,15.58
2019-05-10T14:46:54.017Z,16.58
2019-05-10T14:49:24.519Z,17.31
2019-05-10T14:51:59.699Z,17.49
2019-05-10T14:54:41.508Z,17.20
2019-05-10T14:57:00.469Z,17.50
2019-05-10T15:02:45.068Z,17.74
2019-05-10T15:05:18.180Z,17.94
2019-05-10T15:07:51.061Z,17.22
2019-05-10T15:10:20.935Z,17.55
2019-05-10T15:12:51.544Z,17.58
2019-05-10T15:15:22.042Z,17.68
2019-05-10T15:17:55.310Z,17.71
2019-05-10T15:20:24.871Z,17.83
2019-05-10T15:22:55.690Z,17.94
2019-05-10T15:25:26.317Z,18.07
2019-05-10T15:28:00.151Z,17.42
2019-05-10T15:30:29.424Z,17.55
2019-05-10T15:33:02.621Z,17.36
2019-05-10T15:35:33.163Z,16.90
2019-05-10T15:38:07.034Z,16.35
2019-05-10T15:40:38.593Z,16.31
2019-05-10T15:43:16.853Z,16.34
2019-05-10T15:45:45.911Z,16.48
2019-05-10T15:48:16.913Z,16.36
2019-05-10T15:50:47.350Z,16.31
2019-05-10T15:53:19.338Z,16.32
2019-05-10T15:55:53.005Z,16.16
2019-05-10T15:58:23.505Z,15.97
2019-05-10T16:00:54.101Z,15.93
2019-05-10T16:03:24.729Z,16.27
2019-05-10T16:06:00.869Z,16.11
2019-05-10T16:08:30.432Z,16.52
2019-05-10T16:10:59.688Z,16.74
2019-05-10T16:13:30.248Z,16.51
2019-05-10T16:16:00.989Z,16.80
2019-05-10T16:18:33.519Z,17.01
2019-05-10T16:21:03.631Z,17.44
2019-05-10T16:23:34.702Z,18.12
2019-05-10T16:26:05.227Z,17.83
2019-05-10T16:28:35.996Z,17.43
2019-05-10T16:31:06.857Z,17.03
2019-05-10T16:33:37.336Z,16.55
2019-05-10T16:36:08.384Z,16.18
2019-05-10T16:38:38.979Z,16.34
2019-05-10T16:41:09.613Z,16.40
2019-05-10T16:43:39.971Z,16.21
2019-05-10T16:46:11.159Z,16.06
2019-05-10T16:48:41.972Z,16.08
2019-05-10T16:51:12.906Z,15.94
2019-05-10T16:53:46.476Z,15.63
2019-05-10T16:56:18.711Z,15.68
2019-05-10T16:58:53.058Z,15.65
2019-05-10T17:02:46.875Z,15.77
2019-05-10T17:05:18.275Z,15.66
2019-05-10T17:07:53.720Z,15.51
2019-05-10T17:10:21.593Z,15.48
2019-05-10T17:12:51.957Z,15.38
2019-05-10T17:15:23.167Z,15.24
2019-05-10T17:17:53.751Z,15.20
2019-05-10T17:20:24.499Z,15.13
2019-05-10T17:22:54.934Z,15.08
2019-05-10T17:25:26.255Z,15.02
2019-05-10T17:27:58.085Z,15.03
2019-05-10T17:30:31.758Z,15.05
2019-05-10T17:33:04.000Z,15.17
2019-05-10T17:35:36.738Z,15.22
2019-05-10T17:38:08.018Z,15.32
2019-05-10T17:40:42.188Z,15.38
2019-05-10T17:43:20.791Z,15.44
2019-05-10T17:45:50.655Z,15.42
2019-05-10T17:48:24.032Z,15.42
2019-05-10T17:50:54.569Z,15.33
2019-05-10T17:53:25.303Z,15.32
2019-05-10T17:55:59.382Z,15.04
2019-05-10T17:58:33.020Z,14.98
2019-05-10T18:00:59.417Z,15.00
2019-05-10T18:03:29.749Z,15.05
2019-05-10T18:06:00.006Z,14.89
2019-05-10T18:08:30.419Z,14.70
2019-05-10T18:11:03.985Z,14.60
2019-05-10T18:13:40.987Z,14.50
2019-05-10T18:16:09.503Z,14.30
2019-05-10T18:18:46.284Z,14.24
2019-05-10T18:21:16.072Z,14.50
2019-05-10T18:23:44.471Z,14.77
2019-05-10T18:26:14.907Z,14.81
2019-05-10T18:28:45.108Z,14.88
2019-05-10T18:31:15.336Z,14.63
2019-05-10T18:33:54.283Z,14.27
2019-05-10T18:36:17.703Z,14.12
2019-05-10T18:41:18.912Z,13.79
2019-05-10T18:43:52.346Z,13.63
2019-05-10T18:46:24.666Z,13.51
2019-05-10T18:48:55.268Z,13.38
2019-05-10T18:51:27.163Z,13.34
2019-05-10T18:53:58.492Z,13.28
2019-05-10T18:56:31.441Z,13.18
2019-05-10T18:59:07.369Z,13.07
2019-05-10T19:02:58.577Z,13.01
2019-05-10T19:05:31.928Z,12.85
2019-05-10T19:08:05.741Z,12.89
2019-05-10T19:10:36.634Z,12.96
2019-05-10T19:13:08.873Z,13.03
2019-05-10T19:15:46.248Z,13.03
2019-05-10T19:18:17.646Z,12.97
2019-05-10T19:20:48.831Z,12.98
2019-05-10T19:23:25.400Z,12.95
2019-05-10T19:25:57.081Z,12.99
2019-05-10T19:28:30.089Z,13.04
2019-05-10T19:31:01.390Z,12.97
2019-05-10T19:33:36.187Z,13.02
2019-05-10T19:36:12.433Z,13.03
2019-05-10T19:38:40.734Z,13.02
2019-05-10T19:41:20.221Z,12.98
2019-05-10T19:43:55.895Z,12.91
2019-05-10T19:46:30.224Z,12.96
2019-05-10T19:48:59.441Z,12.98
2019-05-10T19:51:31.359Z,13.06
2019-05-10T19:54:02.238Z,13.03
2019-05-10T19:56:36.897Z,13.02
2019-05-10T19:59:11.657Z,12.97
2019-05-10T20:01:40.310Z,12.95
2019-05-10T20:04:12.399Z,12.92
2019-05-10T20:06:50.355Z,12.92
2019-05-10T20:09:22.613Z,12.91
2019-05-10T20:12:00.174Z,12.91
2019-05-10T20:14:31.691Z,12.97
2019-05-10T20:17:03.349Z,12.97
2019-05-10T20:19:40.060Z,12.94
2019-05-10T20:22:11.618Z,12.86
2019-05-10T20:24:43.449Z,12.85
2019-05-10T20:27:15.358Z,12.79
2019-05-10T20:29:49.533Z,12.76
2019-05-10T20:32:23.474Z,12.84
2019-05-10T20:34:55.305Z,12.74
2019-05-10T20:37:26.352Z,12.70
2019-05-10T20:39:58.525Z,12.66
2019-05-10T20:42:35.489Z,12.62
2019-05-10T20:45:08.603Z,12.62
2019-05-10T20:47:39.629Z,12.57
2019-05-10T20:50:11.881Z,12.45
2019-05-10T20:52:43.102Z,12.45
2019-05-10T20:55:16.715Z,12.45
2019-05-10T20:57:48.055Z,12.45
2019-05-10T21:02:50.109Z,12.40
2019-05-10T21:05:21.368Z,12.31
2019-05-10T21:11:51.804Z,12.32
2019-05-10T21:14:28.324Z,12.37
2019-05-10T21:16:59.339Z,12.41
2019-05-10T21:19:35.155Z,12.40
2019-05-10T21:22:06.316Z,12.37
2019-05-10T21:24:37.888Z,12.31
2019-05-10T21:27:17.068Z,12.30
2019-05-10T21:29:48.467Z,12.27
2019-05-10T21:32:21.824Z,12.29
2019-05-10T21:34:56.922Z,12.28
2019-05-10T21:37:28.285Z,12.20
2019-05-10T21:39:59.158Z,12.18
2019-05-10T21:42:32.257Z,12.16
2019-05-10T21:45:05.997Z,12.23
2019-05-10T21:47:50.693Z,12.18
2019-05-10T21:50:19.537Z,12.17
2019-05-10T21:52:51.609Z,12.18
2019-05-10T21:55:23.246Z,12.16
2019-05-10T21:57:54.143Z,12.10
2019-05-10T22:00:28.118Z,12.04
2019-05-10T22:03:00.815Z,11.98
2019-05-10T22:05:32.358Z,11.91
2019-05-10T22:08:03.461Z,11.92
2019-05-10T22:10:35.543Z,11.84
2019-05-10T22:13:07.249Z,11.83
2019-05-10T22:15:40.129Z,11.87
2019-05-10T22:18:16.482Z,11.89
2019-05-10T22:20:48.387Z,11.94
2019-05-10T22:23:25.451Z,12.02
2019-05-10T22:25:59.774Z,12.06
2019-05-10T22:28:30.621Z,12.05
2019-05-10T22:31:01.687Z,12.06
2019-05-10T22:33:33.662Z,11.83
2019-05-10T22:36:05.277Z,11.70
2019-05-10T22:38:37.572Z,11.69
2019-05-10T22:41:07.917Z,11.55
2019-05-10T22:43:41.282Z,11.50
2019-05-10T22:46:13.765Z,11.38
2019-05-10T22:48:45.597Z,11.31
2019-05-10T22:51:23.597Z,11.21
2019-05-10T22:54:00.098Z,11.20
2019-05-10T22:56:28.979Z,11.11
2019-05-10T22:59:01.586Z,11.10
2019-05-10T23:02:49.829Z,11.00
2019-05-10T23:05:23.079Z,10.95
2019-05-10T23:07:55.409Z,10.97
2019-05-10T23:10:26.843Z,11.04
2019-05-10T23:13:00.149Z,11.02
2019-05-10T23:15:32.349Z,11.04
2019-05-10T23:18:04.352Z,10.89
2019-05-10T23:20:36.583Z,10.92
2019-05-10T23:23:09.281Z,10.93
2019-05-10T23:25:40.774Z,10.93
2019-05-10T23:28:12.268Z,10.90
2019-05-10T23:30:43.636Z,10.86
2019-05-10T23:33:24.540Z,10.94
2019-05-10T23:36:01.226Z,10.85
2019-05-10T23:38:34.192Z,10.90
2019-05-10T23:41:06.557Z,10.87
2019-05-10T23:43:41.617Z,10.87
2019-05-10T23:46:11.814Z,10.84
2019-05-10T23:48:43.909Z,10.92
2019-05-10T23:51:16.324Z,10.91
2019-05-10T23:53:48.262Z,10.80
2019-05-10T23:56:23.260Z,10.79
2019-05-10T23:59:00.237Z,10.74
